sensor_id;sensor_type;location;lat;lon;timestamp;pressure;altitude;pressure_sealevel;temperature;humidity
5753;BME280;2901;42.140;24.760;2023-04-22T00:02:15;99223.22;;;13.50;100.00
5753;BME280;2901;42.140;24.760;2023-04-22T00:04:42;99230.13;;;13.51;100.00
5753;BME280;2901;42.140;24.760;2023-04-22T00:07:10;99223.19;;;13.52;100.00
5753;BME280;2901;42.140;24.760;2023-04-22T00:09:36;99220.66;;;13.49;100.00
5753;BME280;2901;42.140;24.760;2023-04-22T00:12:02;99218.78;;;13.54;100.00
5753;BME280;2901;42.140;24.760;2023-04-22T00:14:27;99218.78;;;13.56;100.00
5753;BME280;2901;42.140;24.760;2023-04-22T00:16:53;99225.47;;;13.66;100.00
5753;BME280;2901;42.140;24.760;2023-04-22T00:19:18;99219.28;;;13.71;100.00
5753;BME280;2901;42.140;24.760;2023-04-22T00:21:43;99208.69;;;13.79;100.00
5753;BME280;2901;42.140;24.760;2023-04-22T00:24:09;99218.06;;;13.86;100.00
5753;BME280;2901;42.140;24.760;2023-04-22T00:26:34;99215.31;;;13.90;100.00
5753;BME280;2901;42.140;24.760;2023-04-22T00:29:00;99220.44;;;13.95;100.00
5753;BME280;2901;42.140;24.760;2023-04-22T00:31:25;99208.28;;;13.95;100.00
5753;BME280;2901;42.140;24.760;2023-04-22T00:33:50;99212.78;;;13.89;100.00
5753;BME280;2901;42.140;24.760;2023-04-22T00:36:16;99217.97;;;13.89;100.00
5753;BME280;2901;42.140;24.760;2023-04-22T00:38:46;99210.19;;;13.89;100.00
5753;BME280;2901;42.140;24.760;2023-04-22T00:41:12;99203.09;;;13.94;100.00
5753;BME280;2901;42.140;24.760;2023-04-22T00:43:38;99210.88;;;13.95;100.00
5753;BME280;2901;42.140;24.760;2023-04-22T00:46:03;99213.63;;;13.89;100.00
5753;BME280;2901;42.140;24.760;2023-04-22T00:48:29;99214.00;;;13.74;100.00
5753;BME280;2901;42.140;24.760;2023-04-22T00:50:55;99217.03;;;13.56;100.00
5753;BME280;2901;42.140;24.760;2023-04-22T00:53:20;99217.41;;;13.39;100.00
5753;BME280;2901;42.140;24.760;2023-04-22T00:55:45;99225.38;;;13.32;100.00
5753;BME280;2901;42.140;24.760;2023-04-22T00:58:11;99221.19;;;13.25;100.00
5753;BME280;2901;42.140;24.760;2023-04-22T01:00:36;99226.53;;;13.19;100.00
5753;BME280;2901;42.140;24.760;2023-04-22T01:03:02;99224.94;;;13.12;100.00
5753;BME280;2901;42.140;24.760;2023-04-22T01:05:30;99225.88;;;13.09;100.00
5753;BME280;2901;42.140;24.760;2023-04-22T01:07:56;99226.66;;;13.13;100.00
5753;BME280;2901;42.140;24.760;2023-04-22T01:10:21;99223.94;;;13.17;100.00
5753;BME280;2901;42.140;24.760;2023-04-22T01:12:47;99225.53;;;13.24;100.00
5753;BME280;2901;42.140;24.760;2023-04-22T01:15:12;99225.75;;;13.15;100.00
5753;BME280;2901;42.140;24.760;2023-04-22T01:17:38;99220.53;;;13.17;100.00
5753;BME280;2901;42.140;24.760;2023-04-22T01:20:03;99226.53;;;13.17;100.00
5753;BME280;2901;42.140;24.760;2023-04-22T01:22:35;99218.09;;;13.06;100.00
5753;BME280;2901;42.140;24.760;2023-04-22T01:25:02;99223.22;;;13.11;100.00
5753;BME280;2901;42.140;24.760;2023-04-22T01:27:27;99219.75;;;13.12;100.00
5753;BME280;2901;42.140;24.760;2023-04-22T01:29:53;99217.22;;;13.07;100.00
5753;BME280;2901;42.140;24.760;2023-04-22T01:32:19;99214.66;;;13.04;100.00
5753;BME280;2901;42.140;24.760;2023-04-22T01:34:45;99211.38;;;12.96;100.00
5753;BME280;2901;42.140;24.760;2023-04-22T01:37:10;99208.81;;;12.94;100.00
5753;BME280;2901;42.140;24.760;2023-04-22T01:39:36;99214.91;;;12.93;100.00
5753;BME280;2901;42.140;24.760;2023-04-22T01:42:02;99195.28;;;12.79;100.00
5753;BME280;2901;42.140;24.760;2023-04-22T01:44:27;99214.19;;;12.87;100.00
5753;BME280;2901;42.140;24.760;2023-04-22T01:46:53;99211.59;;;12.87;100.00
5753;BME280;2901;42.140;24.760;2023-04-22T01:49:19;99215.13;;;12.83;100.00
5753;BME280;2901;42.140;24.760;2023-04-22T01:51:45;99201.41;;;12.76;100.00
5753;BME280;2901;42.140;24.760;2023-04-22T01:54:10;99200.53;;;12.77;100.00
5753;BME280;2901;42.140;24.760;2023-04-22T01:56:35;99209.22;;;12.75;100.00
5753;BME280;2901;42.140;24.760;2023-04-22T01:59:03;99199.78;;;12.71;100.00
5753;BME280;2901;42.140;24.760;2023-04-22T02:01:28;99191.03;;;12.75;100.00
5753;BME280;2901;42.140;24.760;2023-04-22T02:03:53;99205.72;;;12.77;100.00
5753;BME280;2901;42.140;24.760;2023-04-22T02:06:19;99197.94;;;12.77;100.00
5753;BME280;2901;42.140;24.760;2023-04-22T02:08:44;99195.41;;;12.73;100.00
5753;BME280;2901;42.140;24.760;2023-04-22T02:11:09;99204.84;;;12.77;100.00
5753;BME280;2901;42.140;24.760;2023-04-22T02:13:39;99202.25;;;12.77;100.00
5753;BME280;2901;42.140;24.760;2023-04-22T02:16:05;99191.94;;;12.72;100.00
5753;BME280;2901;42.140;24.760;2023-04-22T02:18:31;99193.63;;;12.75;100.00
5753;BME280;2901;42.140;24.760;2023-04-22T02:20:56;99192.00;;;12.69;100.00
5753;BME280;2901;42.140;24.760;2023-04-22T02:23:22;99195.41;;;12.73;100.00
5753;BME280;2901;42.140;24.760;2023-04-22T02:25:51;99194.53;;;12.72;100.00
5753;BME280;2901;42.140;24.760;2023-04-22T02:28:17;99195.34;;;12.76;100.00
5753;BME280;2901;42.140;24.760;2023-04-22T02:30:46;99190.16;;;12.76;100.00
5753;BME280;2901;42.140;24.760;2023-04-22T02:33:11;99203.13;;;12.76;100.00
5753;BME280;2901;42.140;24.760;2023-04-22T02:35:37;99192.81;;;12.71;100.00
5753;BME280;2901;42.140;24.760;2023-04-22T02:38:02;99209.34;;;12.69;100.00
5753;BME280;2901;42.140;24.760;2023-04-22T02:40:28;99201.47;;;12.72;100.00
5753;BME280;2901;42.140;24.760;2023-04-22T02:42:53;99196.28;;;12.72;100.00
5753;BME280;2901;42.140;24.760;2023-04-22T02:45:18;99208.47;;;12.70;100.00
5753;BME280;2901;42.140;24.760;2023-04-22T02:47:44;99208.47;;;12.70;100.00
5753;BME280;2901;42.140;24.760;2023-04-22T02:50:09;99210.19;;;12.69;100.00
5753;BME280;2901;42.140;24.760;2023-04-22T02:52:35;99210.25;;;12.68;100.00
5753;BME280;2901;42.140;24.760;2023-04-22T02:55:00;99217.94;;;12.72;100.00
5753;BME280;2901;42.140;24.760;2023-04-22T02:57:25;99209.31;;;12.70;100.00
5753;BME280;2901;42.140;24.760;2023-04-22T02:59:52;99211.75;;;12.78;100.00
5753;BME280;2901;42.140;24.760;2023-04-22T03:02:17;99210.00;;;12.80;100.00
5753;BME280;2901;42.140;24.760;2023-04-22T03:04:43;99201.34;;;12.79;100.00
5753;BME280;2901;42.140;24.760;2023-04-22T03:07:08;99209.94;;;12.83;100.00
5753;BME280;2901;42.140;24.760;2023-04-22T03:09:33;99211.06;;;12.68;100.00
5753;BME280;2901;42.140;24.760;2023-04-22T03:11:59;99210.19;;;12.69;100.00
5753;BME280;2901;42.140;24.760;2023-04-22T03:14:24;99212.84;;;12.68;100.00
5753;BME280;2901;42.140;24.760;2023-04-22T03:16:49;99208.59;;;12.64;100.00
5753;BME280;2901;42.140;24.760;2023-04-22T03:19:15;99204.19;;;12.67;100.00
5753;BME280;2901;42.140;24.760;2023-04-22T03:21:40;99207.59;;;12.69;100.00
5753;BME280;2901;42.140;24.760;2023-04-22T03:24:06;99207.59;;;12.71;100.00
5753;BME280;2901;42.140;24.760;2023-04-22T03:26:31;99201.47;;;12.72;100.00
5753;BME280;2901;42.140;24.760;2023-04-22T03:28:57;99203.28;;;12.68;100.00
5753;BME280;2901;42.140;24.760;2023-04-22T03:31:22;99211.19;;;12.64;100.00
5753;BME280;2901;42.140;24.760;2023-04-22T03:33:47;99212.91;;;12.63;100.00
5753;BME280;2901;42.140;24.760;2023-04-22T03:36:13;99216.50;;;12.58;100.00
5753;BME280;2901;42.140;24.760;2023-04-22T03:38:38;99219.97;;;12.57;100.00
5753;BME280;2901;42.140;24.760;2023-04-22T03:41:03;99219.91;;;12.60;100.00
5753;BME280;2901;42.140;24.760;2023-04-22T03:43:29;99233.72;;;12.62;100.00
5753;BME280;2901;42.140;24.760;2023-04-22T03:45:55;99229.50;;;12.55;100.00
5753;BME280;2901;42.140;24.760;2023-04-22T03:48:20;99236.31;;;12.62;100.00
5753;BME280;2901;42.140;24.760;2023-04-22T03:50:45;99232.88;;;12.61;100.00
5753;BME280;2901;42.140;24.760;2023-04-22T03:53:11;99231.97;;;12.64;100.00
5753;BME280;2901;42.140;24.760;2023-04-22T03:55:36;99239.66;;;12.68;100.00
5753;BME280;2901;42.140;24.760;2023-04-22T03:58:01;99242.09;;;12.76;100.00
5753;BME280;2901;42.140;24.760;2023-04-22T04:00:27;99246.25;;;12.84;100.00
5753;BME280;2901;42.140;24.760;2023-04-22T04:02:52;99240.16;;;12.87;100.00
5753;BME280;2901;42.140;24.760;2023-04-22T04:05:18;99260.72;;;12.97;100.00
5753;BME280;2901;42.140;24.760;2023-04-22T04:07:43;99249.50;;;12.95;100.00
5753;BME280;2901;42.140;24.760;2023-04-22T04:10:09;99256.38;;;12.99;100.00
5753;BME280;2901;42.140;24.760;2023-04-22T04:12:35;99253.69;;;13.02;100.00
5753;BME280;2901;42.140;24.760;2023-04-22T04:15:00;99259.59;;;13.14;100.00
5753;BME280;2901;42.140;24.760;2023-04-22T04:17:25;99261.38;;;13.10;100.00
5753;BME280;2901;42.140;24.760;2023-04-22T04:19:53;99257.94;;;13.10;100.00
5753;BME280;2901;42.140;24.760;2023-04-22T04:22:19;99264.19;;;12.98;100.00
5753;BME280;2901;42.140;24.760;2023-04-22T04:24:45;99263.44;;;12.93;100.00
5753;BME280;2901;42.140;24.760;2023-04-22T04:27:12;99268.94;;;12.76;100.00
5753;BME280;2901;42.140;24.760;2023-04-22T04:29:38;99265.59;;;12.70;100.00
5753;BME280;2901;42.140;24.760;2023-04-22T04:32:04;99264.72;;;12.71;100.00
5753;BME280;2901;42.140;24.760;2023-04-22T04:34:29;99270.75;;;12.73;100.00
5753;BME280;2901;42.140;24.760;2023-04-22T04:36:56;99267.28;;;12.74;100.00
5753;BME280;2901;42.140;24.760;2023-04-22T04:39:22;99265.53;;;12.74;100.00
5753;BME280;2901;42.140;24.760;2023-04-22T04:41:47;99268.94;;;12.76;100.00
5753;BME280;2901;42.140;24.760;2023-04-22T04:44:13;99276.66;;;12.81;100.00
5753;BME280;2901;42.140;24.760;2023-04-22T04:46:40;99277.47;;;12.83;100.00
5753;BME280;2901;42.140;24.760;2023-04-22T04:49:06;99277.75;;;12.69;100.00
5753;BME280;2901;42.140;24.760;2023-04-22T04:51:34;99278.66;;;12.65;100.00
5753;BME280;2901;42.140;24.760;2023-04-22T04:53:59;99285.47;;;12.74;100.00
5753;BME280;2901;42.140;24.760;2023-04-22T04:56:24;99281.81;;;12.82;100.00
5753;BME280;2901;42.140;24.760;2023-04-22T04:58:50;99281.63;;;12.93;100.00
5753;BME280;2901;42.140;24.760;2023-04-22T05:01:15;99277.16;;;12.99;100.00
5753;BME280;2901;42.140;24.760;2023-04-22T05:03:40;99278.72;;;13.10;100.00
5753;BME280;2901;42.140;24.760;2023-04-22T05:06:06;99284.06;;;13.00;100.00
5753;BME280;2901;42.140;24.760;2023-04-22T05:08:32;99283.22;;;13.00;100.00
5753;BME280;2901;42.140;24.760;2023-04-22T05:10:57;99281.50;;;12.99;100.00
5753;BME280;2901;42.140;24.760;2023-04-22T05:13:23;99291.84;;;13.02;100.00
5753;BME280;2901;42.140;24.760;2023-04-22T05:15:48;99292.72;;;13.01;100.00
5753;BME280;2901;42.140;24.760;2023-04-22T05:18:13;99290.84;;;13.09;100.00
5753;BME280;2901;42.140;24.760;2023-04-22T05:20:39;99284.47;;;13.24;100.00
5753;BME280;2901;42.140;24.760;2023-04-22T05:23:04;99293.78;;;13.35;100.00
5753;BME280;2901;42.140;24.760;2023-04-22T05:25:30;99283.28;;;13.40;100.00
5753;BME280;2901;42.140;24.760;2023-04-22T05:27:55;99291.63;;;13.54;100.00
5753;BME280;2901;42.140;24.760;2023-04-22T05:30:20;99295.69;;;13.67;100.00
5753;BME280;2901;42.140;24.760;2023-04-22T05:32:46;99297.97;;;13.81;100.00
5753;BME280;2901;42.140;24.760;2023-04-22T05:35:11;99300.47;;;13.85;100.00
5753;BME280;2901;42.140;24.760;2023-04-22T05:37:37;99286.75;;;13.79;100.00
5753;BME280;2901;42.140;24.760;2023-04-22T05:40:03;99302.50;;;13.73;100.00
5753;BME280;2901;42.140;24.760;2023-04-22T05:42:29;99309.25;;;13.80;100.00
5753;BME280;2901;42.140;24.760;2023-04-22T05:44:54;99301.22;;;13.90;100.00
5753;BME280;2901;42.140;24.760;2023-04-22T05:47:19;99293.25;;;13.98;100.00
5753;BME280;2901;42.140;24.760;2023-04-22T05:49:46;99300.34;;;14.27;100.00
5753;BME280;2901;42.140;24.760;2023-04-22T05:52:11;99307.94;;;14.37;100.00
5753;BME280;2901;42.140;24.760;2023-04-22T05:54:37;99300.72;;;14.48;100.00
5753;BME280;2901;42.140;24.760;2023-04-22T05:57:02;99305.25;;;14.40;100.00
5753;BME280;2901;42.140;24.760;2023-04-22T05:59:27;99305.06;;;14.48;100.00
5753;BME280;2901;42.140;24.760;2023-04-22T06:01:53;99299.09;;;14.44;100.00
5753;BME280;2901;42.140;24.760;2023-04-22T06:04:18;99301.44;;;14.53;100.00
5753;BME280;2901;42.140;24.760;2023-04-22T06:06:44;99284.59;;;14.67;100.00
5753;BME280;2901;42.140;24.760;2023-04-22T06:09:09;99293.53;;;14.89;100.00
5753;BME280;2901;42.140;24.760;2023-04-22T06:11:34;99291.78;;;14.89;100.00
5753;BME280;2901;42.140;24.760;2023-04-22T06:14:00;99299.41;;;14.97;100.00
5753;BME280;2901;42.140;24.760;2023-04-22T06:16:26;99302.22;;;14.89;100.00
5753;BME280;2901;42.140;24.760;2023-04-22T06:18:51;99301.50;;;14.84;100.00
5753;BME280;2901;42.140;24.760;2023-04-22T06:21:17;99298.91;;;14.84;100.00
5753;BME280;2901;42.140;24.760;2023-04-22T06:23:42;99303.66;;;15.01;100.00
5753;BME280;2901;42.140;24.760;2023-04-22T06:26:08;99299.75;;;15.16;100.00
5753;BME280;2901;42.140;24.760;2023-04-22T06:28:33;99292.75;;;15.18;100.00
5753;BME280;2901;42.140;24.760;2023-04-22T06:30:59;99295.03;;;15.28;100.00
5753;BME280;2901;42.140;24.760;2023-04-22T06:33:25;99297.50;;;15.34;100.00
5753;BME280;2901;42.140;24.760;2023-04-22T06:35:51;99296.44;;;15.40;99.71
5753;BME280;2901;42.140;24.760;2023-04-22T06:38:16;99293.94;;;15.37;99.83
5753;BME280;2901;42.140;24.760;2023-04-22T06:40:42;99299.84;;;15.42;100.00
5753;BME280;2901;42.140;24.760;2023-04-22T06:43:07;99294.03;;;15.34;99.75
5753;BME280;2901;42.140;24.760;2023-04-22T06:45:33;99292.31;;;15.33;100.00
5753;BME280;2901;42.140;24.760;2023-04-22T06:47:58;99294.03;;;15.34;100.00
5753;BME280;2901;42.140;24.760;2023-04-22T06:50:23;99279.38;;;15.28;100.00
5753;BME280;2901;42.140;24.760;2023-04-22T06:52:49;99283.59;;;15.34;100.00
5753;BME280;2901;42.140;24.760;2023-04-22T06:55:14;99293.34;;;15.27;100.00
5753;BME280;2901;42.140;24.760;2023-04-22T06:57:40;99283.81;;;15.26;100.00
5753;BME280;2901;42.140;24.760;2023-04-22T07:00:06;99287.31;;;15.25;100.00
5753;BME280;2901;42.140;24.760;2023-04-22T07:02:34;99293.94;;;15.37;100.00
5753;BME280;2901;42.140;24.760;2023-04-22T07:05:00;99293.41;;;15.55;100.00
5753;BME280;2901;42.140;24.760;2023-04-22T07:07:25;99288.63;;;15.71;99.67
5753;BME280;2901;42.140;24.760;2023-04-22T07:09:50;99292.50;;;15.85;98.82
5753;BME280;2901;42.140;24.760;2023-04-22T07:12:16;99291.19;;;15.98;98.15
5753;BME280;2901;42.140;24.760;2023-04-22T07:14:42;99291.63;;;16.13;97.55
5753;BME280;2901;42.140;24.760;2023-04-22T07:17:08;99291.31;;;16.22;97.24
5753;BME280;2901;42.140;24.760;2023-04-22T07:19:34;99292.75;;;16.30;95.63
5753;BME280;2901;42.140;24.760;2023-04-22T07:22:00;99295.75;;;16.46;95.05
5753;BME280;2901;42.140;24.760;2023-04-22T07:24:27;99295.84;;;16.43;93.36
5753;BME280;2901;42.140;24.760;2023-04-22T07:26:52;99293.72;;;16.54;93.19
5753;BME280;2901;42.140;24.760;2023-04-22T07:29:18;99305.72;;;16.61;92.42
5753;BME280;2901;42.140;24.760;2023-04-22T07:31:43;99298.94;;;16.55;93.42
5753;BME280;2901;42.140;24.760;2023-04-22T07:34:08;99302.09;;;16.65;94.01
5753;BME280;2901;42.140;24.760;2023-04-22T07:36:35;99293.66;;;16.82;93.14
5753;BME280;2901;42.140;24.760;2023-04-22T07:39:00;99295.81;;;16.95;92.44
5753;BME280;2901;42.140;24.760;2023-04-22T07:41:26;99291.59;;;17.15;91.16
5753;BME280;2901;42.140;24.760;2023-04-22T07:43:51;99285.91;;;17.27;90.96
5753;BME280;2901;42.140;24.760;2023-04-22T07:46:17;99293.53;;;17.57;90.01
5753;BME280;2901;42.140;24.760;2023-04-22T07:48:42;99287.25;;;17.61;84.14
5753;BME280;2901;42.140;24.760;2023-04-22T07:51:07;99282.84;;;17.39;86.14
5753;BME280;2901;42.140;24.760;2023-04-22T07:53:33;99282.69;;;17.43;85.34
5753;BME280;2901;42.140;24.760;2023-04-22T07:56:00;99286.06;;;17.45;86.12
5753;BME280;2901;42.140;24.760;2023-04-22T07:58:26;99285.25;;;17.45;85.94
5753;BME280;2901;42.140;24.760;2023-04-22T08:00:51;99284.28;;;17.47;85.38
5753;BME280;2901;42.140;24.760;2023-04-22T08:03:17;99284.84;;;17.55;85.70
5753;BME280;2901;42.140;24.760;2023-04-22T08:05:42;99287.56;;;17.52;85.13
5753;BME280;2901;42.140;24.760;2023-04-22T08:08:08;99284.81;;;17.57;85.14
5753;BME280;2901;42.140;24.760;2023-04-22T08:10:33;99286.66;;;17.77;84.71
5753;BME280;2901;42.140;24.760;2023-04-22T08:12:59;99284.09;;;17.75;83.49
5753;BME280;2901;42.140;24.760;2023-04-22T08:15:25;99286.41;;;17.61;84.20
5753;BME280;2901;42.140;24.760;2023-04-22T08:17:50;99283.13;;;17.54;84.38
5753;BME280;2901;42.140;24.760;2023-04-22T08:20:16;99280.44;;;17.57;85.11
5753;BME280;2901;42.140;24.760;2023-04-22T08:22:42;99274.94;;;17.63;83.67
5753;BME280;2901;42.140;24.760;2023-04-22T08:25:08;99272.16;;;17.68;84.30
5753;BME280;2901;42.140;24.760;2023-04-22T08:27:34;99268.97;;;17.82;84.36
5753;BME280;2901;42.140;24.760;2023-04-22T08:30:00;99263.28;;;17.94;83.67
5753;BME280;2901;42.140;24.760;2023-04-22T08:32:26;99265.59;;;17.80;83.40
5753;BME280;2901;42.140;24.760;2023-04-22T08:34:51;99259.25;;;18.07;83.10
5753;BME280;2901;42.140;24.760;2023-04-22T08:37:17;99253.75;;;18.13;81.97
5753;BME280;2901;42.140;24.760;2023-04-22T08:39:42;99249.97;;;18.20;81.43
5753;BME280;2901;42.140;24.760;2023-04-22T08:42:08;99253.66;;;18.36;81.15
5753;BME280;2901;42.140;24.760;2023-04-22T08:44:34;99247.59;;;18.56;79.69
5753;BME280;2901;42.140;24.760;2023-04-22T08:47:00;99235.78;;;18.86;78.98
5753;BME280;2901;42.140;24.760;2023-04-22T08:49:28;99247.44;;;19.18;77.98
5753;BME280;2901;42.140;24.760;2023-04-22T08:51:54;99245.09;;;19.31;77.38
5753;BME280;2901;42.140;24.760;2023-04-22T08:54:20;99236.44;;;19.49;76.47
5753;BME280;2901;42.140;24.760;2023-04-22T08:56:48;99239.31;;;19.61;75.89
5753;BME280;2901;42.140;24.760;2023-04-22T08:59:14;99240.50;;;19.73;75.39
5753;BME280;2901;42.140;24.760;2023-04-22T09:01:41;99226.78;;;19.85;75.11
5753;BME280;2901;42.140;24.760;2023-04-22T09:04:09;99228.72;;;19.82;76.44
5753;BME280;2901;42.140;24.760;2023-04-22T09:06:34;99220.63;;;19.67;77.57
5753;BME280;2901;42.140;24.760;2023-04-22T09:09:00;99217.25;;;19.65;78.23
5753;BME280;2901;42.140;24.760;2023-04-22T09:11:27;99217.25;;;19.65;77.38
5753;BME280;2901;42.140;24.760;2023-04-22T09:13:55;99212.81;;;19.66;76.66
5753;BME280;2901;42.140;24.760;2023-04-22T09:16:20;99215.63;;;19.80;77.18
5753;BME280;2901;42.140;24.760;2023-04-22T09:18:46;99206.31;;;19.92;75.30
5753;BME280;2901;42.140;24.760;2023-04-22T09:21:11;99204.63;;;20.08;74.15
5753;BME280;2901;42.140;24.760;2023-04-22T09:23:51;99199.53;;;20.22;74.52
5753;BME280;2901;42.140;24.760;2023-04-22T09:26:20;99196.63;;;20.28;73.55
5753;BME280;2901;42.140;24.760;2023-04-22T09:28:56;99200.94;;;20.46;72.98
5753;BME280;2901;42.140;24.760;2023-04-22T09:31:28;99188.53;;;20.65;71.83
5753;BME280;2901;42.140;24.760;2023-04-22T09:33:56;99194.81;;;20.96;70.12
5753;BME280;2901;42.140;24.760;2023-04-22T09:36:28;99189.72;;;21.08;70.05
5753;BME280;2901;42.140;24.760;2023-04-22T09:38:57;99187.59;;;21.16;69.19
5753;BME280;2901;42.140;24.760;2023-04-22T09:41:27;99177.22;;;21.45;68.04
5753;BME280;2901;42.140;24.760;2023-04-22T09:43:54;99175.34;;;21.31;66.20
5753;BME280;2901;42.140;24.760;2023-04-22T09:46:22;99170.94;;;21.32;65.87
5753;BME280;2901;42.140;24.760;2023-04-22T09:48:49;99167.19;;;21.51;63.11
5753;BME280;2901;42.140;24.760;2023-04-22T09:51:16;99172.44;;;21.83;62.86
5753;BME280;2901;42.140;24.760;2023-04-22T09:53:42;99167.56;;;21.91;63.65
5753;BME280;2901;42.140;24.760;2023-04-22T09:56:07;99153.56;;;21.74;64.79
5753;BME280;2901;42.140;24.760;2023-04-22T09:58:37;99155.75;;;21.82;63.85
5753;BME280;2901;42.140;24.760;2023-04-22T10:01:04;99158.44;;;21.66;62.54
5753;BME280;2901;42.140;24.760;2023-04-22T10:03:29;99148.22;;;21.60;63.17
5753;BME280;2901;42.140;24.760;2023-04-22T10:05:56;99153.91;;;21.68;62.29
5753;BME280;2901;42.140;24.760;2023-04-22T10:08:21;99155.63;;;21.69;61.79
5753;BME280;2901;42.140;24.760;2023-04-22T10:10:47;99166.91;;;21.71;60.87
5753;BME280;2901;42.140;24.760;2023-04-22T10:13:12;99152.72;;;21.90;59.22
5753;BME280;2901;42.140;24.760;2023-04-22T10:15:51;99154.09;;;22.11;58.09
5753;BME280;2901;42.140;24.760;2023-04-22T10:18:23;99160.47;;;22.07;57.46
5753;BME280;2901;42.140;24.760;2023-04-22T10:20:50;99155.88;;;22.10;54.11
5753;BME280;2901;42.140;24.760;2023-04-22T10:23:19;99148.88;;;22.39;56.92
5753;BME280;2901;42.140;24.760;2023-04-22T10:25:51;99146.81;;;22.58;54.23
5753;BME280;2901;42.140;24.760;2023-04-22T10:28:19;99144.56;;;22.66;51.76
5753;BME280;2901;42.140;24.760;2023-04-22T10:30:45;99146.03;;;22.56;53.56
5753;BME280;2901;42.140;24.760;2023-04-22T10:36:08;99143.81;;;23.07;56.30
5753;BME280;2901;42.140;24.760;2023-04-22T10:41:29;99141.84;;;22.82;55.68
5753;BME280;2901;42.140;24.760;2023-04-22T10:43:57;99127.81;;;22.82;56.33
5753;BME280;2901;42.140;24.760;2023-04-22T10:48:58;99149.81;;;22.38;57.65
5753;BME280;2901;42.140;24.760;2023-04-22T10:51:54;99152.84;;;22.16;59.20
5753;BME280;2901;42.140;24.760;2023-04-22T10:57:18;99163.00;;;21.79;60.92
5753;BME280;2901;42.140;24.760;2023-04-22T10:59:48;99159.59;;;21.61;61.71
5753;BME280;2901;42.140;24.760;2023-04-22T11:02:17;99160.63;;;21.58;61.30
5753;BME280;2901;42.140;24.760;2023-04-22T11:04:43;99158.03;;;21.88;59.73
5753;BME280;2901;42.140;24.760;2023-04-22T11:10:07;99166.50;;;21.48;57.47
5753;BME280;2901;42.140;24.760;2023-04-22T11:14:59;99161.72;;;21.54;55.10
5753;BME280;2901;42.140;24.760;2023-04-22T11:17:25;99192.16;;;21.44;54.03
5753;BME280;2901;42.140;24.760;2023-04-22T11:19:51;99178.03;;;20.48;56.46
5753;BME280;2901;42.140;24.760;2023-04-22T11:22:22;99183.16;;;19.64;60.00
5753;BME280;2901;42.140;24.760;2023-04-22T11:24:59;99191.94;;;19.07;61.23
5753;BME280;2901;42.140;24.760;2023-04-22T11:27:25;99191.91;;;18.70;62.98
5753;BME280;2901;42.140;24.760;2023-04-22T11:30:07;99208.28;;;18.75;64.72
5753;BME280;2901;42.140;24.760;2023-04-22T11:32:34;99219.56;;;18.36;66.03
5753;BME280;2901;42.140;24.760;2023-04-22T11:35:04;99217.03;;;17.93;68.71
5753;BME280;2901;42.140;24.760;2023-04-22T11:37:30;99231.72;;;17.97;67.81
5753;BME280;2901;42.140;24.760;2023-04-22T11:39:59;99242.75;;;17.61;69.11
5753;BME280;2901;42.140;24.760;2023-04-22T11:42:24;99242.97;;;17.55;70.62
5753;BME280;2901;42.140;24.760;2023-04-22T11:44:51;99243.81;;;17.56;70.99
5753;BME280;2901;42.140;24.760;2023-04-22T11:47:16;99235.78;;;17.60;71.14
5753;BME280;2901;42.140;24.760;2023-04-22T11:49:56;99242.53;;;17.66;71.16
5753;BME280;2901;42.140;24.760;2023-04-22T11:52:24;99258.75;;;17.52;73.02
5753;BME280;2901;42.140;24.760;2023-04-22T11:54:50;99249.91;;;17.33;74.73
5753;BME280;2901;42.140;24.760;2023-04-22T11:57:16;99252.97;;;17.44;77.18
5753;BME280;2901;42.140;24.760;2023-04-22T11:59:42;99256.72;;;17.37;80.89
5753;BME280;2901;42.140;24.760;2023-04-22T12:02:08;99251.34;;;16.95;81.98
5753;BME280;2901;42.140;24.760;2023-04-22T12:04:38;99255.13;;;16.87;84.28
5753;BME280;2901;42.140;24.760;2023-04-22T12:07:04;99245.44;;;16.66;84.38
5753;BME280;2901;42.140;24.760;2023-04-22T12:09:29;99240.31;;;16.63;83.47
5753;BME280;2901;42.140;24.760;2023-04-22T12:11:55;99253.19;;;16.67;83.81
5753;BME280;2901;42.140;24.760;2023-04-22T12:14:26;99255.19;;;16.60;85.41
5753;BME280;2901;42.140;24.760;2023-04-22T12:16:54;99247.63;;;16.27;85.50
5753;BME280;2901;42.140;24.760;2023-04-22T12:19:25;99270.97;;;16.05;87.71
5753;BME280;2901;42.140;24.760;2023-04-22T12:21:54;99256.69;;;15.89;89.45
5753;BME280;2901;42.140;24.760;2023-04-22T12:24:26;99269.16;;;15.51;91.66
5753;BME280;2901;42.140;24.760;2023-04-22T12:26:52;99274.16;;;15.59;93.53
5753;BME280;2901;42.140;24.760;2023-04-22T12:29:25;99269.25;;;15.48;94.86
5753;BME280;2901;42.140;24.760;2023-04-22T12:31:51;99262.44;;;15.43;96.08
5753;BME280;2901;42.140;24.760;2023-04-22T12:34:16;99279.38;;;15.28;94.91
5753;BME280;2901;42.140;24.760;2023-04-22T12:36:42;99268.38;;;15.19;98.03
5753;BME280;2901;42.140;24.760;2023-04-22T12:39:07;99275.75;;;15.04;99.49
5753;BME280;2901;42.140;24.760;2023-04-22T12:41:34;99272.47;;;14.98;100.00
5753;BME280;2901;42.140;24.760;2023-04-22T12:44:00;99272.53;;;14.95;100.00
5753;BME280;2901;42.140;24.760;2023-04-22T12:46:25;99250.69;;;14.99;100.00
5753;BME280;2901;42.140;24.760;2023-04-22T12:48:51;99246.13;;;15.07;100.00
5753;BME280;2901;42.140;24.760;2023-04-22T12:51:16;99255.72;;;15.05;100.00
5753;BME280;2901;42.140;24.760;2023-04-22T12:53:42;99252.13;;;15.09;100.00
5753;BME280;2901;42.140;24.760;2023-04-22T12:56:07;99255.78;;;15.33;100.00
5753;BME280;2901;42.140;24.760;2023-04-22T12:58:33;99253.41;;;15.54;100.00
5753;BME280;2901;42.140;24.760;2023-04-22T13:00:58;99254.47;;;15.77;99.28
5753;BME280;2901;42.140;24.760;2023-04-22T13:03:24;99249.94;;;16.09;98.68
5753;BME280;2901;42.140;24.760;2023-04-22T13:05:50;99236.31;;;16.26;97.59
5753;BME280;2901;42.140;24.760;2023-04-22T13:08:16;99240.09;;;16.69;98.27
5753;BME280;2901;42.140;24.760;2023-04-22T13:10:41;99249.22;;;17.05;96.24
5753;BME280;2901;42.140;24.760;2023-04-22T13:13:07;99253.25;;;17.37;93.16
5753;BME280;2901;42.140;24.760;2023-04-22T13:15:32;99265.81;;;17.50;90.49
5753;BME280;2901;42.140;24.760;2023-04-22T13:17:58;99268.94;;;17.61;90.77